Time;durP1;ratioP1;P1;durP2;ratioP2;P2;SDS_P1;SDS_P2;PMS_P1;PMS_P2;Temp;Humidity;BMP_temperature;BMP_pressure;BME280_temperature;BME280_humidity;BME280_pressure;Samples;Min_cycle;Max_cycle;Signal;HPM_P1;HPM_P2
2021/01/28 00:00:30;;;;;;;88.12;43.10;;;-0.90;99.90;;;;;;5058937;28;20092;-87
2021/01/28 00:03:24;;;;;;;92.40;43.47;;;-0.90;99.90;;;;;;5062175;28;20085;-87
2021/01/28 00:06:04;;;;;;;69.25;30.95;;;-1.00;99.90;;;;;;5083109;28;20119;-87
2021/01/28 00:08:56;;;;;;;73.80;35.08;;;-0.90;99.90;;;;;;5064680;28;20114;-88
2021/01/28 00:11:47;;;;;;;81.12;37.22;;;-1.00;99.90;;;;;;5061851;28;20091;-87
2021/01/28 00:14:41;;;;;;;58.38;28.77;;;-1.00;99.90;;;;;;5075158;28;20097;-88
2021/01/28 00:17:20;;;;;;;53.80;26.80;;;-1.00;99.90;;;;;;5044041;28;20152;-87
2021/01/28 00:20:43;;;;;;;80.43;36.30;;;-0.90;99.90;;;;;;5045941;28;20096;-87
2021/01/28 00:23:22;;;;;;;82.68;39.70;;;-1.00;99.90;;;;;;5058560;28;20088;-88
2021/01/28 00:26:14;;;;;;;92.47;44.55;;;-1.00;99.90;;;;;;5074430;28;20093;-88
2021/01/28 00:28:54;;;;;;;93.43;43.00;;;-1.00;99.90;;;;;;5044121;28;20111;-88
2021/01/28 00:31:52;;;;;;;95.03;43.97;;;-1.00;99.90;;;;;;5056950;28;20123;-88
2021/01/28 00:34:32;;;;;;;76.18;35.58;;;-1.10;99.90;;;;;;5050585;28;20107;-87
2021/01/28 00:37:23;;;;;;;100.10;45.15;;;-1.10;99.90;;;;;;5059152;28;20477;-88
2021/01/28 00:40:06;;;;;;;101.32;46.60;;;-1.20;99.90;;;;;;5079806;28;20165;-87
2021/01/28 00:43:00;;;;;;;97.80;46.25;;;-1.20;99.90;;;;;;5050679;28;20088;-88
2021/01/28 00:45:54;;;;;;;106.07;49.20;;;-1.20;99.90;;;;;;5059523;28;20108;-88
2021/01/28 00:48:48;;;;;;;91.95;42.90;;;-1.20;99.90;;;;;;5030543;28;20107;-88
2021/01/28 00:51:29;;;;;;;87.47;39.20;;;-1.20;99.90;;;;;;5031370;28;20092;-87
2021/01/28 00:54:23;;;;;;;97.50;46.63;;;-1.20;99.90;;;;;;5045842;28;20391;-88
2021/01/28 00:57:17;;;;;;;95.15;48.03;;;-1.20;99.90;;;;;;5069170;28;20107;-88
2021/01/28 01:00:32;;;;;;;96.22;47.10;;;-1.30;99.90;;;;;;5036940;28;20108;-88
2021/01/28 01:03:26;;;;;;;101.57;48.10;;;-1.30;99.90;;;;;;5056590;28;20108;-88
2021/01/28 01:06:18;;;;;;;105.93;47.58;;;-1.40;99.90;;;;;;5062762;28;20097;-88
2021/01/28 01:09:11;;;;;;;94.50;45.53;;;-1.40;99.90;;;;;;5065293;28;20096;-88
2021/01/28 01:12:03;;;;;;;91.35;44.55;;;-1.40;99.90;;;;;;5074548;28;20104;-88
2021/01/28 01:14:45;;;;;;;94.72;42.75;;;-1.40;99.90;;;;;;5038093;28;20154;-88
2021/01/28 01:17:38;;;;;;;96.32;43.47;;;-1.50;99.90;;;;;;5046064;28;20112;-86
2021/01/28 01:20:29;;;;;;;99.35;46.03;;;-1.50;99.90;;;;;;5043270;28;20101;-85
2021/01/28 01:23:23;;;;;;;90.85;42.58;;;-1.50;99.90;;;;;;5029155;28;20095;-85
2021/01/28 01:26:18;;;;;;;88.95;41.67;;;-1.50;99.90;;;;;;4733058;28;20173;-85
2021/01/28 01:29:10;;;;;;;87.45;40.28;;;-1.60;99.90;;;;;;5031986;28;20192;-88
2021/01/28 01:32:04;;;;;;;93.45;41.08;;;-1.50;99.90;;;;;;5039467;28;20104;-89
2021/01/28 01:35:00;;;;;;;100.62;45.03;;;-1.60;99.90;;;;;;5057592;28;20110;-88
2021/01/28 01:37:54;;;;;;;89.00;42.28;;;-1.60;99.90;;;;;;5050039;28;20097;-89
2021/01/28 01:40:56;;;;;;;86.85;43.85;;;-1.60;99.90;;;;;;5032441;28;20112;-90
2021/01/28 01:43:58;;;;;;;97.25;42.17;;;-1.80;99.90;;;;;;5055256;28;20153;-89
2021/01/28 01:46:53;;;;;;;86.68;41.10;;;-1.70;99.90;;;;;;5048349;28;20089;-89
2021/01/28 01:49:47;;;;;;;82.57;41.08;;;-1.80;99.90;;;;;;5081833;28;20107;-89
2021/01/28 01:52:44;;;;;;;85.68;39.80;;;-1.80;99.90;;;;;;5078611;28;20690;-88
2021/01/28 01:55:34;;;;;;;86.00;40.92;;;-1.90;99.90;;;;;;5049629;28;20148;-89
2021/01/28 01:58:49;;;;;;;83.60;41.40;;;-1.90;99.90;;;;;;4988058;28;20112;-88
2021/01/28 02:01:55;;;;;;;90.47;41.40;;;-1.90;99.90;;;;;;5038569;28;20149;-89
2021/01/28 02:04:48;;;;;;;86.80;40.17;;;-1.90;99.90;;;;;;5063411;28;20185;-89
2021/01/28 02:07:39;;;;;;;82.45;40.15;;;-1.90;99.90;;;;;;5056421;28;20478;-89
2021/01/28 02:10:36;;;;;;;92.28;42.83;;;-2.00;99.90;;;;;;5038624;28;20088;-89
2021/01/28 02:13:32;;;;;;;83.50;39.70;;;-1.90;99.90;;;;;;5019487;28;20106;-89
2021/01/28 02:16:25;;;;;;;83.07;38.35;;;-1.90;99.90;;;;;;5017195;28;20096;-85
2021/01/28 02:19:56;;;;;;;79.57;34.30;;;-1.90;99.90;;;;;;5052370;28;20153;-85
2021/01/28 02:22:54;;;;;;;74.65;34.60;;;-1.90;99.90;;;;;;5048194;28;20096;-85
2021/01/28 02:25:49;;;;;;;75.00;35.78;;;-1.90;99.90;;;;;;5062613;28;20106;-85
2021/01/28 02:28:42;;;;;;;73.18;33.80;;;-1.90;99.90;;;;;;5046811;28;20084;-85
2021/01/28 02:31:33;;;;;;;69.35;32.17;;;-1.90;99.90;;;;;;5024418;28;20104;-85
2021/01/28 02:34:24;;;;;;;86.25;41.13;;;-1.90;99.90;;;;;;5027499;28;20111;-85
2021/01/28 02:37:18;;;;;;;76.78;37.72;;;-1.90;99.90;;;;;;5018720;28;20093;-85
2021/01/28 02:40:11;;;;;;;87.25;40.88;;;-1.90;99.90;;;;;;5061337;28;20140;-85
2021/01/28 02:43:08;;;;;;;83.53;39.00;;;-1.80;99.90;;;;;;5043702;28;20093;-85
2021/01/28 02:46:05;;;;;;;82.30;38.17;;;-1.80;99.90;;;;;;5064044;28;20372;-85
2021/01/28 02:48:56;;;;;;;71.50;36.95;;;-1.90;99.90;;;;;;5057765;28;20108;-85
2021/01/28 02:51:48;;;;;;;70.47;34.63;;;-1.90;99.90;;;;;;5013231;28;20085;-85
2021/01/28 02:54:44;;;;;;;73.25;35.63;;;-1.90;99.90;;;;;;5041789;28;20097;-85
2021/01/28 02:57:34;;;;;;;76.53;37.35;;;-1.80;99.90;;;;;;5081175;28;20147;-85
2021/01/28 03:00:33;;;;;;;80.62;35.55;;;-1.80;99.90;;;;;;5005496;28;20443;-85
2021/01/28 03:03:24;;;;;;;55.33;28.42;;;-1.80;99.90;;;;;;5073502;28;20152;-85
2021/01/28 03:06:15;;;;;;;52.28;25.10;;;-1.80;99.90;;;;;;5048230;28;20092;-85
2021/01/28 03:09:07;;;;;;;66.57;31.58;;;-1.80;99.90;;;;;;5038975;28;20140;-85
2021/01/28 03:12:24;;;;;;;74.20;34.40;;;-1.80;99.90;;;;;;5051779;28;20085;-85
2021/01/28 03:15:18;;;;;;;63.78;32.88;;;-1.80;99.90;;;;;;5081039;28;20155;-85
2021/01/28 03:18:12;;;;;;;55.42;25.85;;;-1.70;99.90;;;;;;5031339;28;20120;-89
2021/01/28 03:21:02;;;;;;;68.43;33.22;;;-1.70;99.90;;;;;;5051356;28;20095;-89
2021/01/28 03:23:54;;;;;;;59.55;29.87;;;-1.70;99.90;;;;;;5023028;28;20101;-89
2021/01/28 03:26:47;;;;;;;65.22;33.25;;;-1.60;99.90;;;;;;5080347;28;20430;-88
2021/01/28 03:29:38;;;;;;;70.22;34.00;;;-1.60;99.90;;;;;;5032966;28;20881;-89
2021/01/28 03:32:29;;;;;;;67.75;31.33;;;-1.70;99.90;;;;;;5045103;28;20097;-88
2021/01/28 03:35:23;;;;;;;70.90;33.90;;;-1.60;99.90;;;;;;5052539;28;20147;-88
2021/01/28 03:38:14;;;;;;;60.28;29.20;;;-1.60;99.90;;;;;;5013420;28;20112;-88
2021/01/28 03:41:05;;;;;;;59.05;28.95;;;-1.60;99.90;;;;;;5061331;28;20112;-88
2021/01/28 03:43:58;;;;;;;49.70;25.12;;;-1.50;99.90;;;;;;5060754;28;20091;-88
2021/01/28 03:46:53;;;;;;;59.83;26.95;;;-1.60;99.90;;;;;;5057954;28;20103;-86
2021/01/28 03:49:45;;;;;;;45.83;22.85;;;-1.50;99.90;;;;;;5026273;28;20222;-86
2021/01/28 03:52:35;;;;;;;46.08;22.83;;;-1.40;99.90;;;;;;5077140;28;20092;-86
2021/01/28 03:55:27;;;;;;;41.55;20.60;;;-1.40;99.90;;;;;;5049149;28;20096;-86
2021/01/28 03:58:06;;;;;;;40.83;21.12;;;-1.40;99.90;;;;;;5076014;28;20141;-86
2021/01/28 04:00:58;;;;;;;39.70;21.12;;;-1.30;99.90;;;;;;5068812;28;20097;-86
2021/01/28 04:04:04;;;;;;;45.65;22.62;;;-1.30;99.90;;;;;;4988842;28;20148;-86
2021/01/28 04:06:58;;;;;;;62.15;29.67;;;-1.20;99.90;;;;;;5036924;28;20093;-86
2021/01/28 04:09:52;;;;;;;51.65;24.70;;;-1.20;99.90;;;;;;5071906;28;20089;-86
2021/01/28 04:12:53;;;;;;;44.33;22.17;;;-1.20;99.90;;;;;;5036990;28;20116;-86
2021/01/28 04:15:51;;;;;;;53.80;25.35;;;-1.20;99.90;;;;;;5046724;28;20255;-86
2021/01/28 04:18:45;;;;;;;54.60;26.25;;;-1.20;99.90;;;;;;5047515;28;20104;-86
2021/01/28 04:21:37;;;;;;;49.78;24.15;;;-1.10;99.90;;;;;;5050835;28;20112;-86
2021/01/28 04:24:37;;;;;;;46.15;24.20;;;-1.10;99.90;;;;;;5040519;28;20145;-86
2021/01/28 04:27:35;;;;;;;48.78;25.65;;;-1.10;99.90;;;;;;5058625;28;20088;-86
2021/01/28 04:30:31;;;;;;;53.05;26.45;;;-1.10;99.90;;;;;;5056810;28;20088;-86
2021/01/28 04:33:22;;;;;;;55.88;27.70;;;-1.10;99.90;;;;;;5039298;28;20089;-86
2021/01/28 04:36:13;;;;;;;51.30;25.92;;;-1.10;99.90;;;;;;5052893;28;20355;-86
2021/01/28 04:39:16;;;;;;;38.63;19.58;;;-1.00;99.90;;;;;;5037333;28;20105;-86
2021/01/28 04:42:16;;;;;;;43.45;20.92;;;-1.00;99.90;;;;;;5026973;28;20136;-86
2021/01/28 04:45:09;;;;;;;45.70;24.10;;;-1.00;99.90;;;;;;5024040;28;20564;-86
2021/01/28 04:48:04;;;;;;;41.10;21.10;;;-1.00;99.90;;;;;;5089616;28;20156;-86
2021/01/28 04:50:58;;;;;;;43.67;21.37;;;-0.90;99.90;;;;;;5059208;28;20106;-86
2021/01/28 04:53:54;;;;;;;39.08;19.58;;;-0.90;99.90;;;;;;5081625;28;20111;-86
2021/01/28 04:56:46;;;;;;;28.38;16.00;;;-0.90;99.90;;;;;;5043179;28;20093;-86
2021/01/28 04:59:42;;;;;;;28.08;16.27;;;-0.80;99.90;;;;;;5025952;28;20457;-86
2021/01/28 05:02:34;;;;;;;29.08;16.90;;;-0.80;99.90;;;;;;5045533;28;20103;-86
2021/01/28 05:05:26;;;;;;;25.42;15.38;;;-0.80;99.90;;;;;;5043315;28;20176;-86
2021/01/28 05:08:18;;;;;;;27.33;17.02;;;-0.70;99.90;;;;;;5038375;28;20501;-86
2021/01/28 05:11:27;;;;;;;27.70;16.15;;;-0.70;99.90;;;;;;5061192;28;20147;-86
2021/01/28 05:14:26;;;;;;;30.17;15.65;;;-0.70;99.90;;;;;;5062672;28;20088;-86
2021/01/28 05:17:20;;;;;;;28.20;15.32;;;-0.60;99.90;;;;;;5016103;28;20081;-86
2021/01/28 05:20:17;;;;;;;27.23;16.75;;;-0.60;99.90;;;;;;5046210;28;20116;-86
2021/01/28 05:23:23;;;;;;;31.87;17.12;;;-0.60;99.90;;;;;;5090740;28;20092;-86
2021/01/28 05:26:51;;;;;;;28.23;16.27;;;-0.50;99.90;;;;;;5095200;28;20155;-89
2021/01/28 05:29:42;;;;;;;25.62;14.77;;;-0.50;99.90;;;;;;5008769;28;20544;-88
2021/01/28 05:32:46;;;;;;;26.52;16.02;;;-0.50;99.90;;;;;;4735043;28;20405;-89
2021/01/28 05:35:38;;;;;;;26.35;16.45;;;-0.40;99.90;;;;;;5063096;28;20119;-88
2021/01/28 05:38:42;;;;;;;30.95;16.73;;;-0.40;99.90;;;;;;5103972;28;20083;-85
2021/01/28 05:41:47;;;;;;;29.98;17.40;;;-0.40;99.90;;;;;;5045337;28;20097;-86
2021/01/28 05:44:39;;;;;;;28.52;16.80;;;-0.40;99.90;;;;;;5056677;28;20123;-86
2021/01/28 05:47:32;;;;;;;26.25;16.52;;;-0.40;99.90;;;;;;5071018;28;20088;-86
2021/01/28 05:50:24;;;;;;;26.30;14.93;;;-0.40;99.90;;;;;;5044838;28;20088;-85
2021/01/28 05:53:16;;;;;;;27.58;16.27;;;-0.30;99.90;;;;;;5093114;28;20089;-86
2021/01/28 05:56:15;;;;;;;30.45;16.52;;;-0.30;99.90;;;;;;5075304;28;20482;-86
2021/01/28 05:59:08;;;;;;;26.52;16.30;;;-0.30;99.90;;;;;;5060430;28;20486;-86
2021/01/28 06:02:18;;;;;;;34.47;17.95;;;-0.20;99.90;;;;;;5064436;28;20174;-85
2021/01/28 06:05:29;;;;;;;28.55;16.60;;;-0.20;99.90;;;;;;5072076;28;20470;-85
2021/01/28 06:08:46;;;;;;;30.75;17.23;;;-0.20;99.90;;;;;;5058957;28;20402;-84
2021/01/28 06:11:56;;;;;;;29.77;17.23;;;-0.20;99.90;;;;;;5051680;28;20405;-86
2021/01/28 06:15:05;;;;;;;29.95;17.87;;;-0.10;99.90;;;;;;5051672;28;20115;-85
2021/01/28 06:18:03;;;;;;;28.90;17.50;;;-0.10;99.90;;;;;;5064542;28;20083;-84
2021/01/28 06:21:32;;;;;;;36.35;19.65;;;-0.10;99.90;;;;;;5086189;28;20181;-84
2021/01/28 06:24:35;;;;;;;31.17;17.05;;;0.10;99.90;;;;;;5062554;28;20206;-87
2021/01/28 06:28:02;;;;;;;40.45;20.67;;;0.20;99.90;;;;;;5033347;28;20088;-89
2021/01/28 06:31:24;;;;;;;40.58;22.48;;;0.20;99.90;;;;;;5033552;28;20092;-88
2021/01/28 06:34:47;;;;;;;34.65;19.75;;;0.20;99.90;;;;;;5037447;28;20092;-88
2021/01/28 06:37:50;;;;;;;30.45;16.98;;;0.20;99.90;;;;;;5020571;28;20108;-87
2021/01/28 06:40:57;;;;;;;34.63;19.50;;;0.20;99.90;;;;;;5072623;28;20136;-88
2021/01/28 06:43:52;;;;;;;33.60;18.80;;;0.30;99.90;;;;;;5008419;28;20109;-87
2021/01/28 06:47:16;;;;;;;35.13;20.52;;;0.30;99.90;;;;;;5076133;28;20092;-87
2021/01/28 06:50:13;;;;;;;33.83;19.87;;;0.30;99.90;;;;;;5046246;28;20107;-87
2021/01/28 06:53:04;;;;;;;37.55;21.30;;;0.30;99.90;;;;;;5061192;28;20111;-87
2021/01/28 06:56:06;;;;;;;33.90;20.05;;;0.30;99.90;;;;;;5064493;28;20606;-87
2021/01/28 06:59:27;;;;;;;37.20;20.62;;;0.30;99.90;;;;;;5007327;28;20179;-87
2021/01/28 07:02:38;;;;;;;38.60;20.40;;;0.40;99.90;;;;;;5022277;28;20515;-87
2021/01/28 07:06:00;;;;;;;28.65;16.85;;;0.40;99.90;;;;;;5042280;28;20392;-87
2021/01/28 07:09:02;;;;;;;37.08;19.75;;;0.40;99.90;;;;;;5065420;28;20111;-86
2021/01/28 07:12:03;;;;;;;34.40;20.55;;;0.40;99.90;;;;;;5051263;28;20092;-87
2021/01/28 07:15:00;;;;;;;34.13;20.12;;;0.40;99.90;;;;;;5038674;28;20160;-87
2021/01/28 07:18:07;;;;;;;31.45;19.55;;;0.40;99.90;;;;;;5035068;28;20104;-88
2021/01/28 07:21:06;;;;;;;33.00;20.80;;;0.40;99.90;;;;;;5032079;28;20100;-87
2021/01/28 07:24:23;;;;;;;35.83;19.77;;;0.40;99.90;;;;;;5054270;28;20532;-86
2021/01/28 07:27:18;;;;;;;35.03;19.50;;;0.40;99.90;;;;;;5061865;28;20092;-87
2021/01/28 07:29:57;;;;;;;30.15;19.73;;;0.50;99.90;;;;;;5033697;28;20097;-87
2021/01/28 07:32:50;;;;;;;27.27;17.33;;;0.50;99.90;;;;;;5041921;28;20169;-87
2021/01/28 07:35:46;;;;;;;29.42;17.48;;;0.50;99.90;;;;;;5054806;28;20115;-87
2021/01/28 07:38:46;;;;;;;24.75;15.75;;;0.50;99.90;;;;;;5057822;28;20084;-87
2021/01/28 07:42:08;;;;;;;32.30;17.23;;;0.50;99.90;;;;;;5043690;28;20105;-87
2021/01/28 07:45:31;;;;;;;25.00;14.93;;;0.60;99.90;;;;;;5008474;28;20108;-88
2021/01/28 07:48:27;;;;;;;22.73;15.13;;;0.60;99.90;;;;;;5088675;28;20101;-88
2021/01/28 07:51:36;;;;;;;30.12;15.43;;;0.60;99.90;;;;;;4999511;28;20108;-88
2021/01/28 07:54:24;;;;;;;22.67;14.60;;;0.80;99.90;;;;;;5093594;28;20088;-88
2021/01/28 07:57:28;;;;;;;21.90;14.25;;;0.80;99.90;;;;;;5055083;28;20092;-88
2021/01/28 08:00:20;;;;;;;25.23;15.45;;;0.80;99.90;;;;;;5076118;28;20088;-88
2021/01/28 08:03:46;;;;;;;24.42;14.87;;;0.90;99.90;;;;;;5028101;28;20187;-87
2021/01/28 08:06:25;;;;;;;37.30;16.67;;;0.90;99.90;;;;;;5080121;28;20148;-88
2021/01/28 08:09:20;;;;;;;23.75;15.13;;;0.90;99.90;;;;;;5042248;28;20089;-88
2021/01/28 08:13:02;;;;;;;23.50;15.13;;;0.90;99.90;;;;;;5055252;28;20093;-88
2021/01/28 08:16:02;;;;;;;26.80;15.07;;;0.90;99.90;;;;;;5046296;28;20112;-88
2021/01/28 08:18:42;;;;;;;24.27;14.48;;;1.00;99.90;;;;;;5064222;28;20088;-89
2021/01/28 08:21:39;;;;;;;28.73;16.35;;;1.00;99.90;;;;;;5066497;28;20127;-88
2021/01/28 08:24:34;;;;;;;24.30;14.87;;;1.00;99.90;;;;;;5064344;28;20099;-87
2021/01/28 08:27:38;;;;;;;27.30;14.93;;;1.00;99.90;;;;;;5043130;28;20113;-87
2021/01/28 08:30:23;;;;;;;26.48;15.90;;;1.00;99.90;;;;;;5039732;28;20103;-87
2021/01/28 08:33:22;;;;;;;26.40;15.65;;;1.00;99.90;;;;;;5061869;28;20521;-88
2021/01/28 08:36:15;;;;;;;26.92;16.80;;;1.10;99.90;;;;;;5065954;28;20087;-88
2021/01/28 08:39:26;;;;;;;26.12;14.93;;;1.10;99.90;;;;;;5011302;28;20166;-87
2021/01/28 08:42:30;;;;;;;24.87;15.25;;;1.10;99.90;;;;;;5064861;28;20103;-87
2021/01/28 08:45:30;;;;;;;24.05;13.77;;;1.10;99.90;;;;;;5045381;28;20182;-87
2021/01/28 08:48:14;;;;;;;22.35;14.35;;;1.10;99.90;;;;;;5067206;28;20099;-87
2021/01/28 08:51:23;;;;;;;24.30;14.98;;;1.20;99.90;;;;;;5010294;28;20491;-87
2021/01/28 08:54:03;;;;;;;24.07;14.03;;;1.20;99.90;;;;;;5085192;28;20091;-88
2021/01/28 08:56:58;;;;;;;25.27;14.45;;;1.20;99.90;;;;;;5063176;28;20559;-87
2021/01/28 08:59:59;;;;;;;21.60;13.80;;;1.20;99.90;;;;;;5064755;28;20102;-87
2021/01/28 09:02:54;;;;;;;26.55;14.70;;;1.20;99.90;;;;;;5044745;28;20088;-87
2021/01/28 09:05:33;;;;;;;26.55;15.07;;;1.20;99.90;;;;;;5071584;28;20490;-87
2021/01/28 09:08:33;;;;;;;25.00;13.95;;;1.30;99.90;;;;;;5049416;28;20178;-87
2021/01/28 09:11:29;;;;;;;26.75;14.13;;;1.30;99.90;;;;;;5038750;28;20103;-88
2021/01/28 09:14:23;;;;;;;26.62;15.15;;;1.30;99.90;;;;;;5062743;28;20180;-86
2021/01/28 09:17:26;;;;;;;31.90;18.10;;;1.30;99.90;;;;;;5092875;28;20089;-87
2021/01/28 09:20:32;;;;;;;26.90;16.30;;;1.40;99.90;;;;;;5046413;28;20156;-88
2021/01/28 09:23:15;;;;;;;24.48;14.55;;;1.40;99.90;;;;;;5088719;28;20093;-88
2021/01/28 09:26:18;;;;;;;27.02;14.32;;;1.40;99.90;;;;;;5005842;28;20101;-87
2021/01/28 09:29:22;;;;;;;24.17;14.75;;;1.40;99.90;;;;;;5076276;28;20228;-87
2021/01/28 09:32:19;;;;;;;24.63;16.52;;;1.50;99.90;;;;;;5046825;28;20092;-87
2021/01/28 09:35:21;;;;;;;26.98;15.35;;;1.50;99.90;;;;;;5061407;28;20084;-87
2021/01/28 09:38:19;;;;;;;22.42;14.52;;;1.60;99.90;;;;;;5015218;28;20198;-87
2021/01/28 09:41:18;;;;;;;23.90;15.63;;;1.60;99.90;;;;;;5036329;28;20097;-86
2021/01/28 09:44:30;;;;;;;22.45;14.57;;;1.70;99.90;;;;;;5059397;28;20174;-88
2021/01/28 09:47:30;;;;;;;20.45;13.30;;;1.70;99.90;;;;;;5068889;28;20359;-86
2021/01/28 09:50:27;;;;;;;20.70;13.75;;;1.80;99.90;;;;;;5055940;28;20516;-88
2021/01/28 09:53:07;;;;;;;21.87;13.15;;;1.80;99.90;;;;;;5044491;28;20111;-87
2021/01/28 09:56:05;;;;;;;19.52;12.50;;;1.90;99.90;;;;;;5084686;28;20084;-87
2021/01/28 09:58:47;;;;;;;17.35;11.88;;;1.90;99.90;;;;;;5056016;28;20100;-86
2021/01/28 10:01:39;;;;;;;16.25;11.07;;;2.00;99.90;;;;;;5023426;28;20112;-88
2021/01/28 10:04:36;;;;;;;18.20;11.68;;;2.00;99.90;;;;;;5064467;28;20144;-88
2021/01/28 10:07:15;;;;;;;21.55;11.50;;;2.10;99.90;;;;;;4739026;28;20092;-88
2021/01/28 10:10:11;;;;;;;16.98;10.60;;;2.10;99.90;;;;;;5045174;28;20414;-87
2021/01/28 10:12:53;;;;;;;21.15;12.43;;;2.10;99.90;;;;;;5069813;28;20084;-87
2021/01/28 10:15:48;;;;;;;21.87;12.95;;;2.20;99.90;;;;;;5035959;28;20470;-87
2021/01/28 10:18:32;;;;;;;18.40;11.38;;;2.20;99.90;;;;;;5083460;28;20902;-88
2021/01/28 10:21:25;;;;;;;22.45;12.95;;;2.20;99.90;;;;;;5038362;28;20096;-87
2021/01/28 10:24:05;;;;;;;19.87;12.73;;;2.20;99.90;;;;;;5128106;28;20087;-87
2021/01/28 10:26:57;;;;;;;19.42;12.35;;;2.20;99.90;;;;;;5053494;28;20139;-88
2021/01/28 10:29:37;;;;;;;19.65;12.63;;;2.30;99.90;;;;;;5045345;28;20093;-87
2021/01/28 10:32:30;;;;;;;21.48;13.10;;;2.30;99.90;;;;;;5069397;28;20100;-88
2021/01/28 10:35:10;;;;;;;19.73;12.32;;;2.30;99.90;;;;;;5059289;28;20106;-86
2021/01/28 10:38:04;;;;;;;20.27;13.48;;;2.40;99.90;;;;;;5038560;28;20179;-87
2021/01/28 10:40:45;;;;;;;18.50;11.50;;;2.40;99.90;;;;;;5074722;28;20100;-86
2021/01/28 10:43:37;;;;;;;19.52;12.60;;;2.50;99.90;;;;;;5068256;28;20088;-87
2021/01/28 10:46:18;;;;;;;18.45;11.98;;;2.50;99.90;;;;;;5083885;28;20091;-86
2021/01/28 10:49:13;;;;;;;17.37;11.70;;;2.60;99.90;;;;;;5062444;28;20490;-87
2021/01/28 10:51:52;;;;;;;17.65;11.38;;;2.60;99.90;;;;;;5060347;28;20146;-86
2021/01/28 10:54:46;;;;;;;17.27;11.50;;;2.60;99.90;;;;;;5055823;28;20143;-88
2021/01/28 10:57:28;;;;;;;17.80;11.15;;;2.70;99.90;;;;;;5035792;28;20406;-87
2021/01/28 11:00:25;;;;;;;21.50;11.65;;;2.70;99.90;;;;;;5064288;28;20104;-88
2021/01/28 11:03:36;;;;;;;19.08;11.38;;;2.80;99.90;;;;;;5038918;28;20186;-86
2021/01/28 11:06:34;;;;;;;18.98;10.88;;;2.80;99.90;;;;;;5090431;28;20168;-87
2021/01/28 11:09:25;;;;;;;20.12;12.43;;;2.80;99.90;;;;;;5095918;28;20096;-88
2021/01/28 11:12:59;;;;;;;21.87;12.93;;;2.90;99.90;;;;;;4991369;28;20141;-88
2021/01/28 11:15:41;;;;;;;19.62;11.57;;;2.90;99.90;;;;;;5124319;27;20146;-88
2021/01/28 11:18:37;;;;;;;18.58;10.65;;;2.90;99.90;;;;;;5006240;28;20111;-88
2021/01/28 11:21:19;;;;;;;18.62;11.43;;;3.00;99.90;;;;;;5058409;28;20092;-87
2021/01/28 11:24:12;;;;;;;19.17;11.45;;;3.00;99.90;;;;;;5063130;28;20170;-87
2021/01/28 11:27:00;;;;;;;20.58;12.43;;;3.00;99.90;;;;;;5045764;28;20081;-89
2021/01/28 11:29:52;;;;;;;20.52;11.32;;;3.00;99.90;;;;;;5000663;28;20100;-88
2021/01/28 11:32:33;;;;;;;18.98;10.75;;;3.00;99.90;;;;;;5068070;28;20149;-88
2021/01/28 11:35:33;;;;;;;19.65;11.77;;;3.00;99.90;;;;;;5038983;28;20108;-89
2021/01/28 11:38:14;;;;;;;21.17;11.20;;;3.10;99.90;;;;;;5039539;28;20140;-89
2021/01/28 11:41:12;;;;;;;22.90;12.90;;;3.10;99.90;;;;;;5030646;28;20089;-87
2021/01/28 11:43:52;;;;;;;19.90;12.70;;;3.10;99.90;;;;;;5047040;28;20151;-89
2021/01/28 11:46:46;;;;;;;20.08;11.02;;;3.10;99.90;;;;;;5061431;28;20096;-90
2021/01/28 11:49:25;;;;;;;17.35;10.95;;;3.10;99.90;;;;;;5057217;28;20104;-90
2021/01/28 11:52:20;;;;;;;21.58;12.65;;;3.10;99.90;;;;;;4997460;28;20100;-89
2021/01/28 11:55:00;;;;;;;24.80;12.18;;;3.10;99.90;;;;;;5057245;28;20104;-90
2021/01/28 11:57:52;;;;;;;21.20;11.07;;;3.10;99.90;;;;;;5070597;28;20501;-90
2021/01/28 12:00:32;;;;;;;17.65;11.32;;;3.10;99.90;;;;;;5038001;28;20111;-89
2021/01/28 12:03:23;;;;;;;22.50;11.98;;;3.10;99.90;;;;;;5053014;28;20407;-89
2021/01/28 12:06:03;;;;;;;20.67;12.45;;;3.20;99.90;;;;;;5050445;28;20092;-89
2021/01/28 12:08:56;;;;;;;21.60;12.45;;;3.10;99.90;;;;;;5041567;28;20100;-90
2021/01/28 12:11:35;;;;;;;20.85;12.77;;;3.10;99.90;;;;;;5097662;28;20106;-89
2021/01/28 12:14:28;;;;;;;19.45;11.93;;;3.10;99.90;;;;;;5048846;28;20108;-89
2021/01/28 12:17:20;;;;;;;21.83;12.60;;;3.10;99.90;;;;;;5000020;28;20137;-89
2021/01/28 12:20:13;;;;;;;18.83;11.10;;;3.10;99.90;;;;;;5049065;28;20115;-90
2021/01/28 12:22:51;;;;;;;18.52;11.00;;;3.10;99.90;;;;;;5038322;28;20156;-90
2021/01/28 12:25:43;;;;;;;20.98;11.00;;;3.10;99.90;;;;;;5088777;28;20104;-88
2021/01/28 12:28:25;;;;;;;18.85;12.18;;;3.10;99.90;;;;;;5062203;28;20513;-89
2021/01/28 12:31:15;;;;;;;18.33;10.57;;;3.00;99.90;;;;;;5057085;28;20103;-89
2021/01/28 12:33:55;;;;;;;19.35;11.12;;;3.00;99.90;;;;;;5100105;28;20153;-89
2021/01/28 12:36:47;;;;;;;20.55;11.40;;;3.00;99.90;;;;;;5032683;28;20085;-89
2021/01/28 12:39:26;;;;;;;21.37;12.10;;;3.00;99.90;;;;;;5045416;28;20140;-88
2021/01/28 12:42:25;;;;;;;20.98;11.93;;;3.00;99.90;;;;;;5027883;28;20105;-89
2021/01/28 12:45:05;;;;;;;17.75;11.50;;;3.00;99.90;;;;;;5045871;28;20449;-89
2021/01/28 12:47:58;;;;;;;18.20;11.12;;;3.00;99.90;;;;;;5032038;28;20093;-89
2021/01/28 12:50:36;;;;;;;20.02;11.32;;;3.00;99.90;;;;;;5056894;28;20190;-89
2021/01/28 12:53:28;;;;;;;16.12;10.82;;;3.00;99.90;;;;;;5045304;28;20107;-89
2021/01/28 12:56:07;;;;;;;20.85;11.93;;;3.10;99.90;;;;;;5066680;28;20092;-88
2021/01/28 12:59:01;;;;;;;22.67;13.30;;;3.10;99.90;;;;;;5053997;28;20092;-89
2021/01/28 13:01:39;;;;;;;19.00;11.90;;;3.10;99.90;;;;;;5064876;28;20092;-86
2021/01/28 13:04:30;;;;;;;26.10;12.60;;;3.10;99.90;;;;;;5027093;28;20088;-86
2021/01/28 13:07:09;;;;;;;20.20;12.37;;;3.10;99.90;;;;;;5076720;28;20137;-88
2021/01/28 13:10:01;;;;;;;20.42;12.48;;;3.10;99.90;;;;;;5063042;28;20093;-87
2021/01/28 13:12:43;;;;;;;21.67;11.98;;;3.10;99.90;;;;;;5061384;28;20098;-87
2021/01/28 13:15:35;;;;;;;23.95;13.98;;;3.10;99.90;;;;;;5042095;28;20096;-87
2021/01/28 13:18:14;;;;;;;18.75;12.23;;;3.10;99.90;;;;;;5035627;28;20145;-86
2021/01/28 13:21:06;;;;;;;21.85;13.48;;;3.10;99.90;;;;;;5070984;28;20559;-87
2021/01/28 13:23:44;;;;;;;22.23;13.15;;;3.10;99.90;;;;;;5050049;28;20380;-87
2021/01/28 13:26:35;;;;;;;19.87;12.52;;;3.10;99.90;;;;;;5041730;28;20500;-88
2021/01/28 13:29:21;;;;;;;21.37;12.95;;;3.10;99.90;;;;;;5045406;28;20140;-87
2021/01/28 13:32:12;;;;;;;19.80;12.40;;;3.10;99.90;;;;;;5013507;28;20093;-87
2021/01/28 13:35:04;;;;;;;22.75;13.32;;;3.20;99.90;;;;;;5045973;28;20156;-87
2021/01/28 13:37:57;;;;;;;21.73;13.77;;;3.20;99.90;;;;;;5035123;28;20490;-86
2021/01/28 13:40:46;;;;;;;20.62;13.43;;;3.20;99.90;;;;;;5063222;28;20190;-86
2021/01/28 13:43:37;;;;;;;21.08;13.82;;;3.20;99.90;;;;;;5065656;28;20093;-87
2021/01/28 13:46:33;;;;;;;24.17;15.18;;;3.20;99.90;;;;;;5059306;28;20404;-88
2021/01/28 13:49:33;;;;;;;22.83;14.73;;;3.20;99.90;;;;;;5035168;28;20085;-87
2021/01/28 13:52:13;;;;;;;28.58;15.48;;;3.10;99.90;;;;;;5130444;28;20480;-87
2021/01/28 13:55:03;;;;;;;26.77;15.88;;;3.10;99.90;;;;;;5042902;28;20140;-87
2021/01/28 13:57:42;;;;;;;28.48;16.10;;;3.10;99.90;;;;;;5059583;28;20490;-87
2021/01/28 14:00:39;;;;;;;26.17;15.40;;;3.10;99.90;;;;;;5087931;28;20096;-88
2021/01/28 14:03:59;;;;;;;28.27;16.58;;;3.10;99.90;;;;;;5096088;28;20126;-87
2021/01/28 14:06:54;;;;;;;26.00;16.33;;;3.10;99.90;;;;;;5026591;28;20093;-88
2021/01/28 14:09:34;;;;;;;25.20;15.68;;;3.00;99.90;;;;;;5063207;28;20104;-88
2021/01/28 14:12:31;;;;;;;31.25;19.05;;;3.10;99.90;;;;;;5065152;28;20103;-86
2021/01/28 14:15:21;;;;;;;27.23;17.02;;;3.00;99.90;;;;;;5037840;28;20104;-85
2021/01/28 14:18:49;;;;;;;29.25;17.62;;;3.00;99.90;;;;;;5037873;28;20088;-88
2021/01/28 14:21:35;;;;;;;31.15;17.12;;;3.10;99.90;;;;;;5057515;28;20105;-87
2021/01/28 14:24:26;;;;;;;23.05;14.68;;;3.00;99.90;;;;;;5076768;28;20096;-85
2021/01/28 14:27:22;;;;;;;28.38;17.35;;;3.00;99.90;;;;;;5059084;28;20096;-87
2021/01/28 14:30:20;;;;;;;34.72;18.30;;;3.00;99.90;;;;;;5047795;28;20104;-86
2021/01/28 14:33:04;;;;;;;37.33;20.70;;;3.00;99.90;;;;;;5069337;28;20092;-87
2021/01/28 14:35:56;;;;;;;41.92;19.25;;;3.00;99.90;;;;;;5046134;28;20092;-86
2021/01/28 14:38:44;;;;;;;36.83;19.67;;;3.00;99.90;;;;;;5026226;28;20096;-86
2021/01/28 14:41:53;;;;;;;38.03;19.05;;;3.00;99.90;;;;;;5064379;28;20092;-87
2021/01/28 14:44:40;;;;;;;43.38;19.52;;;3.00;99.90;;;;;;5088503;28;20091;-86
2021/01/28 14:47:36;;;;;;;45.08;21.33;;;2.90;99.90;;;;;;5025866;28;20097;-86
2021/01/28 14:50:21;;;;;;;40.97;20.85;;;2.90;99.90;;;;;;4735760;28;10217826;-88
2021/01/28 14:53:29;;;;;;;43.85;21.60;;;2.90;99.90;;;;;;5063003;28;20189;-86